Time;durP1;ratioP1;P1;durP2;ratioP2;P2;SDS_P1;SDS_P2;PMS_P1;PMS_P2;Temp;Humidity;BMP_temperature;BMP_pressure;BME280_temperature;BME280_humidity;BME280_pressure;Samples;Min_cycle;Max_cycle;Signal;HPM_P1;HPM_P2
2022/12/27 00:00:06;;;;;;;26.50;10.70;;;;;;;7.54;100.00;98624.52;2172285;82;20996;-59
2022/12/27 00:03:08;;;;;;;33.80;11.63;;;;;;;7.60;100.00;98622.89;2172391;81;21048;-59
2022/12/27 00:06:09;;;;;;;29.23;10.85;;;;;;;7.60;100.00;98613.75;2171918;81;21775;-58
2022/12/27 00:09:11;;;;;;;28.55;10.88;;;;;;;7.61;100.00;98615.89;2172131;81;21134;-58
2022/12/27 00:12:12;;;;;;;27.15;11.22;;;;;;;7.56;100.00;98600.47;2172190;81;21083;-58
2022/12/27 00:15:13;;;;;;;36.28;13.40;;;;;;;7.62;100.00;98611.06;2172366;81;21013;-59
2022/12/27 00:18:15;;;;;;;35.15;12.73;;;;;;;7.69;100.00;98599.37;2172151;81;21080;-59
2022/12/27 00:21:17;;;;;;;39.70;14.60;;;;;;;7.70;100.00;98598.45;2172159;81;21152;-59
2022/12/27 00:24:18;;;;;;;42.85;15.38;;;;;;;7.77;100.00;98593.73;2188522;81;21020;-59
2022/12/27 00:27:20;;;;;;;34.30;13.22;;;;;;;7.82;100.00;98592.20;2189061;81;21455;-59
2022/12/27 00:30:21;;;;;;;30.62;11.97;;;;;;;7.84;100.00;98591.17;2188610;81;21012;-59
2022/12/27 00:33:23;;;;;;;31.73;12.90;;;;;;;7.94;100.00;98595.00;2189177;81;21508;-59
2022/12/27 00:36:24;;;;;;;36.55;13.45;;;;;;;7.94;100.00;98599.36;2188632;81;21750;-59
2022/12/27 00:39:26;;;;;;;36.68;13.90;;;;;;;7.95;100.00;98611.50;2188718;81;21516;-59
2022/12/27 00:42:27;;;;;;;30.08;12.60;;;;;;;7.96;100.00;98602.28;2188846;81;21024;-59
2022/12/27 00:45:29;;;;;;;31.40;12.47;;;;;;;7.97;100.00;98600.05;2188676;81;21011;-58
2022/12/27 00:48:30;;;;;;;42.00;14.73;;;;;;;8.06;100.00;98601.77;2188788;81;20972;-59
2022/12/27 00:51:32;;;;;;;37.88;14.63;;;;;;;8.05;100.00;98606.63;2188707;81;21033;-59
2022/12/27 00:54:33;;;;;;;31.45;12.53;;;;;;;8.04;100.00;98607.55;2188864;81;21010;-59
2022/12/27 00:57:34;;;;;;;33.50;12.78;;;;;;;8.03;100.00;98596.71;2188700;81;20972;-59
2022/12/27 01:00:36;;;;;;;32.48;13.38;;;;;;;8.02;100.00;98606.33;2188369;81;21487;-59
2022/12/27 01:03:38;;;;;;;35.20;14.58;;;;;;;8.09;100.00;98602.45;2189138;81;21492;-59
2022/12/27 01:06:40;;;;;;;35.90;14.43;;;;;;;8.09;100.00;98605.55;2188917;81;21091;-58
2022/12/27 01:09:41;;;;;;;33.28;13.32;;;;;;;8.02;100.00;98603.72;2188687;81;21017;-59
2022/12/27 01:12:42;;;;;;;34.03;13.18;;;;;;;8.03;100.00;98606.72;2188811;81;20968;-59
2022/12/27 01:15:44;;;;;;;32.28;12.45;;;;;;;8.03;100.00;98601.49;2188668;81;20973;-59
2022/12/27 01:18:45;;;;;;;28.83;10.70;;;;;;;8.05;100.00;98617.91;2188799;81;20976;-59
2022/12/27 01:21:47;;;;;;;26.23;9.70;;;;;;;8.03;100.00;98624.14;2188826;81;21039;-59
2022/12/27 01:24:49;;;;;;;25.92;9.18;;;;;;;8.01;100.00;98627.31;2188963;81;20951;-59
2022/12/27 01:27:50;;;;;;;25.50;8.00;;;;;;;8.02;100.00;98619.86;2188767;81;21024;-59
2022/12/27 01:30:52;;;;;;;24.10;7.45;;;;;;;8.02;100.00;98629.84;2188999;81;21520;-59
2022/12/27 01:33:54;;;;;;;26.97;8.10;;;;;;;8.02;100.00;98632.92;2188733;81;21128;-59
2022/12/27 01:36:55;;;;;;;21.70;6.47;;;;;;;8.01;100.00;98636.45;2188881;81;21015;-58
2022/12/27 01:39:57;;;;;;;19.12;5.37;;;;;;;7.92;100.00;98647.77;2188627;81;21064;-59
2022/12/27 01:42:58;;;;;;;22.25;6.33;;;;;;;7.90;100.00;98652.23;2188312;81;21087;-59
2022/12/27 01:46:00;;;;;;;15.83;4.30;;;;;;;7.76;100.00;98664.70;2188681;81;20976;-59
2022/12/27 01:49:01;;;;;;;16.87;4.58;;;;;;;7.73;100.00;98656.17;2188650;81;20984;-59
2022/12/27 01:52:03;;;;;;;13.62;3.40;;;;;;;7.71;100.00;98645.80;2188900;81;20987;-59
2022/12/27 01:55:05;;;;;;;12.58;3.17;;;;;;;7.69;100.00;98637.70;2188717;81;20957;-59
2022/12/27 01:58:06;;;;;;;15.38;3.83;;;;;;;7.66;100.00;98647.83;2188760;81;20956;-59
2022/12/27 02:01:08;;;;;;;14.63;3.57;;;;;;;7.65;100.00;98651.83;2188816;81;21027;-59
2022/12/27 02:04:09;;;;;;;13.43;3.15;;;;;;;7.63;100.00;98633.16;2188798;81;21259;-59
2022/12/27 02:07:11;;;;;;;10.88;2.72;;;;;;;7.65;100.00;98633.08;2188617;81;21004;-59
2022/12/27 02:10:12;;;;;;;12.40;2.85;;;;;;;7.68;100.00;98632.09;2188902;81;21455;-59
2022/12/27 02:13:14;;;;;;;12.23;2.87;;;;;;;7.70;100.00;98633.70;2188610;81;20967;-59
2022/12/27 02:16:15;;;;;;;15.87;3.93;;;;;;;7.69;100.00;98628.09;2189155;81;21031;-59
2022/12/27 02:19:17;;;;;;;16.10;3.80;;;;;;;7.72;100.00;98630.53;2188625;81;21016;-59
2022/12/27 02:22:18;;;;;;;15.70;3.53;;;;;;;7.69;100.00;98628.56;2186213;81;21466;-59
2022/12/27 02:25:20;;;;;;;15.25;3.95;;;;;;;7.70;100.00;98619.34;2172002;81;21316;-59
2022/12/27 02:28:21;;;;;;;18.48;4.72;;;;;;;7.73;100.00;98632.23;2171727;81;21608;-59
2022/12/27 02:31:22;;;;;;;16.37;4.65;;;;;;;7.75;100.00;98637.37;2172082;82;21049;-59
2022/12/27 02:34:24;;;;;;;14.58;4.15;;;;;;;7.75;100.00;98634.28;2171956;81;21040;-59
2022/12/27 02:37:25;;;;;;;17.20;4.67;;;;;;;7.76;100.00;98643.81;2172141;81;21033;-59
2022/12/27 02:58:47;;;;;;;16.62;4.62;;;;;;;7.78;100.00;98681.59;2161754;82;20995;-59
2022/12/27 03:04:51;;;;;;;14.80;4.22;;;;;;;7.69;100.00;98676.86;2106465;84;21025;-58
2022/12/27 03:07:53;;;;;;;13.48;3.83;;;;;;;7.66;100.00;98672.63;2127566;84;21011;-59
2022/12/27 03:17:01;;;;;;;9.05;2.62;;;;;;;7.44;100.00;98708.09;2106111;84;21061;-59
2022/12/27 03:26:09;;;;;;;7.42;1.62;;;;;;;7.31;100.00;98717.46;2106536;84;21511;-59
2022/12/27 03:35:17;;;;;;;5.92;1.02;;;;;;;7.13;100.00;98737.02;2106385;84;21024;-59
2022/12/27 03:38:19;;;;;;;7.53;1.80;;;;;;;7.05;100.00;98730.88;2127688;84;21027;-59
2022/12/27 03:44:24;;;;;;;3.45;1.67;;;;;;;6.87;100.00;98733.88;2161997;82;21460;-59
2022/12/27 03:47:25;;;;;;;5.62;1.98;;;;;;;6.78;100.00;98749.11;2171939;81;21144;-59
2022/12/27 03:50:27;;;;;;;5.90;2.02;;;;;;;6.74;100.00;98751.86;2171639;81;21061;-58
2022/12/27 03:53:28;;;;;;;5.57;1.90;;;;;;;6.82;100.00;98759.31;2172458;82;20981;-59
2022/12/27 03:56:30;;;;;;;7.37;2.08;;;;;;;6.74;100.00;98762.28;2172091;81;21021;-59
2022/12/27 03:59:31;;;;;;;5.92;2.05;;;;;;;6.77;100.00;98770.43;2172447;81;20990;-59
2022/12/27 04:02:33;;;;;;;10.82;2.40;;;;;;;6.79;100.00;98782.92;2172191;81;21048;-59
2022/12/27 04:05:34;;;;;;;7.08;2.37;;;;;;;6.72;100.00;98789.34;2172238;81;21472;-59
2022/12/27 04:36:05;;;;;;;7.53;2.70;;;;;;;6.35;100.00;98814.43;2117725;83;21015;-59
2022/12/27 04:39:07;;;;;;;9.25;2.70;;;;;;;6.41;100.00;98829.34;2143983;83;21276;-59
2022/12/27 04:57:25;;;;;;;9.35;3.17;;;;;;;6.45;100.00;98869.59;2117683;83;20983;-59
2022/12/27 05:03:29;;;;;;;9.25;2.90;;;;;;;6.39;100.00;98878.52;2117775;83;20959;-59
2022/12/27 05:06:31;;;;;;;8.93;2.92;;;;;;;6.35;100.00;98891.28;2143902;83;21047;-59
2022/12/27 05:15:39;;;;;;;7.12;2.60;;;;;;;5.80;100.00;98942.09;2117671;83;20972;-59
2022/12/27 05:18:40;;;;;;;8.80;3.10;;;;;;;5.68;100.00;98959.51;2144157;83;21091;-59
2022/12/27 05:27:48;;;;;;;7.90;2.47;;;;;;;5.43;100.00;98952.65;2161793;82;20997;-59
2022/12/27 05:30:50;;;;;;;8.10;2.27;;;;;;;5.29;100.00;98984.83;2172652;82;21524;-58
2022/12/27 05:33:51;;;;;;;10.72;2.62;;;;;;;5.12;100.00;98990.18;2172078;81;21041;-59
2022/12/27 05:36:53;;;;;;;9.43;2.40;;;;;;;5.02;100.00;98983.62;2172333;81;21592;-59
2022/12/27 05:39:55;;;;;;;9.35;2.42;;;;;;;4.90;100.00;99030.40;2172081;81;21515;-59
2022/12/27 05:42:57;;;;;;;7.55;2.17;;;;;;;4.85;100.00;99023.20;2172075;81;21365;-59
2022/12/27 05:45:58;;;;;;;10.00;2.10;;;;;;;4.69;100.00;99039.77;2172065;81;21064;-59
2022/12/27 05:48:59;;;;;;;12.82;1.80;;;;;;;4.56;100.00;99019.00;2172154;81;21076;-58
2022/12/27 05:52:01;;;;;;;11.78;2.60;;;;;;;4.47;100.00;99020.16;2172021;81;21049;-58
2022/12/27 05:55:02;;;;;;;8.65;2.10;;;;;;;4.36;100.00;99035.23;2172206;81;20972;-59
2022/12/27 05:58:04;;;;;;;11.95;2.30;;;;;;;4.30;100.00;99041.02;2172089;81;21042;-59
2022/12/27 06:01:05;;;;;;;8.60;2.05;;;;;;;4.25;100.00;99036.86;2172304;81;21520;-58
2022/12/27 06:04:06;;;;;;;10.28;2.08;;;;;;;4.08;100.00;99034.79;2171982;82;21045;-59
2022/12/27 06:07:08;;;;;;;12.90;2.52;;;;;;;4.15;100.00;99038.89;2171950;81;21628;-59
2022/12/27 06:10:10;;;;;;;10.63;2.33;;;;;;;4.06;100.00;99043.92;2172121;82;20975;-58
2022/12/27 06:13:11;;;;;;;14.98;2.52;;;;;;;4.03;100.00;99053.11;2171971;81;21040;-59
2022/12/27 06:16:13;;;;;;;11.63;2.40;;;;;;;3.90;100.00;99056.98;2172118;81;21065;-58
2022/12/27 06:19:14;;;;;;;13.80;2.50;;;;;;;3.94;100.00;99053.41;2172041;81;21092;-58
2022/12/27 06:22:15;;;;;;;14.00;2.90;;;;;;;3.91;100.00;99066.48;2172254;82;21012;-59
2022/12/27 06:25:17;;;;;;;14.58;2.50;;;;;;;3.87;100.00;99083.03;2171707;81;21136;-58
2022/12/27 06:28:18;;;;;;;12.88;3.35;;;;;;;3.80;100.00;99086.25;2171993;81;21585;-59
2022/12/27 06:31:20;;;;;;;15.53;2.87;;;;;;;3.76;100.00;99099.73;2172170;81;21017;-59
2022/12/27 06:34:21;;;;;;;12.37;2.60;;;;;;;3.78;100.00;99103.16;2171835;81;21085;-59
2022/12/27 06:37:22;;;;;;;15.03;2.45;;;;;;;3.69;100.00;99111.19;2171991;81;21088;-59
2022/12/27 06:40:24;;;;;;;11.60;2.52;;;;;;;3.58;100.00;99120.58;2172024;81;21076;-58
2022/12/27 06:43:25;;;;;;;12.53;2.40;;;;;;;3.53;100.00;99117.25;2172196;81;21559;-58
2022/12/27 06:46:27;;;;;;;11.22;2.27;;;;;;;3.54;100.00;99124.61;2171996;81;21053;-58
2022/12/27 06:49:28;;;;;;;13.38;2.40;;;;;;;3.32;100.00;99132.97;2171939;81;21532;-59
2022/12/27 06:52:30;;;;;;;14.00;2.60;;;;;;;3.23;100.00;99160.41;2172289;81;21060;-58
2022/12/27 06:55:32;;;;;;;13.45;2.60;;;;;;;3.23;100.00;99160.41;2171822;82;21670;-59
2022/12/27 06:58:33;;;;;;;15.63;2.27;;;;;;;3.14;100.00;99153.73;2172087;82;21045;-59
2022/12/27 07:01:35;;;;;;;10.87;1.93;;;;;;;3.10;100.00;99159.88;2172150;81;21086;-59
2022/12/27 07:04:36;;;;;;;15.00;2.85;;;;;;;3.07;100.00;99161.25;2172123;82;21358;-58
2022/12/27 07:07:38;;;;;;;12.75;1.87;;;;;;;3.01;100.00;99148.45;2172079;81;21112;-58
2022/12/27 07:10:39;;;;;;;13.18;2.70;;;;;;;2.98;100.00;99165.38;2172315;82;21520;-58
2022/12/27 07:13:41;;;;;;;14.40;2.30;;;;;;;3.01;100.00;99161.41;2172096;81;21029;-59
2022/12/27 07:16:42;;;;;;;10.55;2.27;;;;;;;2.95;100.00;99159.82;2172128;81;21599;-59
2022/12/27 07:19:44;;;;;;;10.82;2.22;;;;;;;2.92;100.00;99178.87;2171926;81;21041;-59
2022/12/27 07:22:45;;;;;;;14.87;2.60;;;;;;;2.92;100.00;99192.30;2172110;81;21103;-58
2022/12/27 07:25:46;;;;;;;20.85;2.75;;;;;;;2.91;100.00;99190.58;2186788;81;21083;-59
2022/12/27 07:28:48;;;;;;;17.05;2.58;;;;;;;2.90;100.00;99204.41;2188579;81;21034;-59
2022/12/27 07:31:49;;;;;;;16.80;2.62;;;;;;;2.90;100.00;99214.36;2188732;81;21474;-58
2022/12/27 07:34:51;;;;;;;13.63;2.40;;;;;;;2.94;100.00;99215.99;2188614;81;21028;-58
2022/12/27 07:37:53;;;;;;;16.10;2.87;;;;;;;3.00;100.00;99238.29;2188777;81;21848;-59
2022/12/27 07:40:56;;;;;;;;;;;;;;;3.03;100.00;99227.88;2191508;81;20997;-59
2022/12/27 07:43:57;;;;;;;20.32;2.60;;;;;;;3.06;100.00;99219.15;2189004;81;20124;-58
2022/12/27 07:46:59;;;;;;;15.23;2.22;;;;;;;3.05;100.00;99230.43;2188856;81;20996;-58
2022/12/27 07:50:00;;;;;;;15.65;2.30;;;;;;;3.02;100.00;99221.44;2189126;81;20965;-58
2022/12/27 07:53:01;;;;;;;20.68;2.90;;;;;;;3.01;100.00;99238.70;2188847;81;21016;-59
2022/12/27 07:56:03;;;;;;;20.95;3.05;;;;;;;2.98;100.00;99233.59;2189086;81;21022;-58
2022/12/27 07:59:04;;;;;;;17.85;2.85;;;;;;;3.02;100.00;99234.39;2188805;81;21040;-58
2022/12/27 08:02:06;;;;;;;17.25;3.08;;;;;;;3.10;100.00;99232.03;2189134;81;21450;-58
2022/12/27 08:05:07;;;;;;;22.33;4.30;;;;;;;3.19;100.00;99251.69;2188881;81;21016;-58
2022/12/27 08:08:11;;;;;;;12.80;2.90;;;;;;;3.19;100.00;99251.69;2188973;81;21380;-58
2022/12/27 08:11:12;;;;;;;24.35;3.75;;;;;;;3.27;100.00;99256.22;2143997;83;21551;-59
2022/12/27 08:14:14;;;;;;;23.70;4.10;;;;;;;3.32;100.00;99277.30;2144203;83;20948;-59
2022/12/27 08:17:16;;;;;;;20.23;4.05;;;;;;;3.32;100.00;99278.59;2144240;83;21548;-59
2022/12/27 08:20:17;;;;;;;21.47;3.73;;;;;;;3.34;100.00;99284.61;2144193;83;21035;-59
2022/12/27 08:23:19;;;;;;;19.92;2.98;;;;;;;3.36;100.00;99279.80;2143835;83;20948;-59
2022/12/27 08:26:20;;;;;;;21.23;3.30;;;;;;;3.41;100.00;99284.42;2127641;83;20996;-59
2022/12/27 08:29:22;;;;;;;22.58;3.00;;;;;;;3.45;100.00;99291.70;2127628;84;21076;-59
2022/12/27 08:32:23;;;;;;;19.95;3.00;;;;;;;3.49;100.00;99298.48;2127624;84;21559;-59
2022/12/27 08:35:25;;;;;;;22.13;3.50;;;;;;;3.54;100.00;99314.80;2127837;84;21059;-59
2022/12/27 08:38:26;;;;;;;19.07;2.95;;;;;;;3.54;100.00;99316.55;2127861;84;21455;-58
2022/12/27 08:41:28;;;;;;;14.05;2.92;;;;;;;3.50;100.00;99321.41;2127589;84;20980;-58
2022/12/27 08:44:29;;;;;;;20.93;2.90;;;;;;;3.54;100.00;99329.52;2127897;84;21527;-59
2022/12/27 08:47:31;;;;;;;16.23;3.00;;;;;;;3.57;100.00;99344.55;2127564;84;21695;-59
2022/12/27 08:50:32;;;;;;;16.67;3.27;;;;;;;3.59;100.00;99349.70;2127590;84;21051;-57
2022/12/27 08:53:34;;;;;;;19.82;3.80;;;;;;;3.57;100.00;99356.22;2127465;84;21063;-59
2022/12/27 08:56:36;;;;;;;11.78;2.40;;;;;;;3.61;100.00;99364.34;2127569;84;21052;-58
2022/12/27 08:59:37;;;;;;;11.88;2.72;;;;;;;3.58;100.00;99360.98;2127802;84;20956;-58
2022/12/27 09:02:39;;;;;;;20.10;3.20;;;;;;;3.68;100.00;99360.30;2127571;84;20984;-59
2022/12/27 09:05:40;;;;;;;12.37;2.40;;;;;;;3.77;100.00;99358.33;2127742;84;21004;-58
2022/12/27 09:08:42;;;;;;;19.37;3.02;;;;;;;3.83;100.00;99367.71;2127547;84;21060;-58
2022/12/27 09:11:45;;;;;;;13.13;2.40;;;;;;;3.97;100.00;99372.11;2127952;84;21448;-59
2022/12/27 09:14:46;;;;;;;20.80;3.50;;;;;;;4.02;100.00;99395.34;2127544;84;20994;-58
2022/12/27 09:17:48;;;;;;;16.48;2.67;;;;;;;3.98;100.00;99378.17;2127817;84;20988;-59
2022/12/27 09:20:49;;;;;;;15.25;2.95;;;;;;;3.94;100.00;99398.61;2127254;84;21012;-59
2022/12/27 09:23:51;;;;;;;13.45;2.75;;;;;;;3.89;100.00;99405.64;2128128;83;21569;-59
2022/12/27 09:26:52;;;;;;;14.58;2.50;;;;;;;3.90;100.00;99393.08;2137310;83;21007;-58
2022/12/27 09:29:53;;;;;;;16.75;2.60;;;;;;;3.94;100.00;99394.71;2137091;83;21027;-59
2022/12/27 09:32:55;;;;;;;13.10;2.37;;;;;;;3.99;100.00;99400.63;2137198;83;20984;-59
2022/12/27 09:35:57;;;;;;;10.78;2.30;;;;;;;4.03;100.00;99417.83;2137037;83;21773;-58
2022/12/27 09:38:58;;;;;;;15.28;2.70;;;;;;;4.06;100.00;99401.33;2137342;83;20993;-58
2022/12/27 09:42:00;;;;;;;17.62;2.30;;;;;;;4.18;100.00;99398.44;2137260;83;21020;-58
2022/12/27 09:45:01;;;;;;;15.53;2.85;;;;;;;4.26;100.00;99395.63;2137233;83;21427;-58
2022/12/27 09:48:03;;;;;;;16.15;2.90;;;;;;;4.27;100.00;99398.64;2136585;83;21028;-58
2022/12/27 09:51:05;;;;;;;20.12;2.83;;;;;;;4.21;100.00;99397.05;2136949;83;21551;-58
2022/12/27 09:54:07;;;;;;;16.70;3.10;;;;;;;4.28;100.00;99386.04;2137229;83;21045;-59
2022/12/27 09:57:08;;;;;;;15.35;2.50;;;;;;;4.30;100.00;99396.80;2137064;83;21494;-58
2022/12/27 10:00:09;;;;;;;17.20;2.40;;;;;;;4.42;100.00;99386.52;2137064;83;21018;-59
2022/12/27 10:03:11;;;;;;;13.00;2.08;;;;;;;4.39;100.00;99390.97;2137015;83;20963;-59
2022/12/27 10:06:13;;;;;;;14.28;1.92;;;;;;;4.32;100.00;99386.38;2137395;83;21047;-59
2022/12/27 10:09:14;;;;;;;19.32;3.15;;;;;;;4.31;100.00;99397.22;2137036;83;21043;-58
2022/12/27 10:12:16;;;;;;;14.68;2.33;;;;;;;4.26;100.00;99396.93;2137188;83;21015;-58
2022/12/27 10:15:17;;;;;;;13.65;2.60;;;;;;;4.22;100.00;99401.80;2136818;83;21051;-58
2022/12/27 10:18:19;;;;;;;20.90;3.77;;;;;;;4.33;100.00;99404.51;2137545;83;20988;-58
2022/12/27 10:21:20;;;;;;;15.25;2.62;;;;;;;4.30;100.00;99425.83;2137041;83;20984;-58
2022/12/27 10:24:22;;;;;;;11.68;2.50;;;;;;;4.37;100.00;99416.98;2135272;83;21507;-58
2022/12/27 10:27:23;;;;;;;14.73;2.20;;;;;;;4.38;100.00;99411.33;2127729;84;21000;-59
2022/12/27 10:30:25;;;;;;;17.97;2.83;;;;;;;4.39;100.00;99402.20;2127768;84;20992;-59
2022/12/27 10:33:26;;;;;;;16.80;2.85;;;;;;;4.40;100.00;99402.61;2127567;84;21008;-58
2022/12/27 10:36:28;;;;;;;16.75;2.92;;;;;;;4.48;100.00;99403.70;2127796;84;20989;-59
2022/12/27 10:39:31;;;;;;;14.63;2.40;;;;;;;4.61;100.00;99404.22;2127412;84;21008;-58
2022/12/27 10:42:32;;;;;;;9.65;2.37;;;;;;;4.65;100.00;99399.34;2127523;84;21664;-59
2022/12/27 10:45:35;;;;;;;21.42;2.87;;;;;;;4.66;100.00;99406.25;2127620;84;20975;-58
2022/12/27 10:48:39;;;;;;;18.65;2.98;;;;;;;4.67;100.00;99401.47;2127429;84;21019;-59
2022/12/27 10:51:42;;;;;;;17.90;2.85;;;;;;;4.71;100.00;99400.47;2127731;83;21479;-58
2022/12/27 10:54:44;;;;;;;13.08;2.30;;;;;;;4.83;100.00;99417.03;2127267;84;21024;-59
2022/12/27 10:57:45;;;;;;;19.05;3.47;;;;;;;4.82;100.00;99415.77;2127726;84;20945;-58
2022/12/27 11:00:46;;;;;;;18.30;2.92;;;;;;;4.88;100.00;99422.55;2127470;84;21043;-58
2022/12/27 11:03:48;;;;;;;18.62;2.62;;;;;;;4.94;100.00;99427.14;2127625;84;20987;-58
2022/12/27 11:06:50;;;;;;;16.77;3.10;;;;;;;4.86;100.00;99431.23;2127986;84;21040;-58
2022/12/27 11:09:52;;;;;;;18.70;2.93;;;;;;;4.72;100.00;99435.13;2128173;84;21037;-58
2022/12/27 11:12:53;;;;;;;11.53;2.75;;;;;;;4.81;100.00;99424.45;2127610;84;21035;-59
2022/12/27 11:15:56;;;;;;;18.07;2.80;;;;;;;4.96;100.00;99431.84;2128035;84;21084;-58
2022/12/27 11:18:57;;;;;;;20.50;4.00;;;;;;;5.01;100.00;99442.09;2127804;84;20996;-58
2022/12/27 11:21:59;;;;;;;16.10;3.02;;;;;;;4.89;100.00;99432.06;2127916;84;21039;-58
2022/12/27 11:25:00;;;;;;;17.30;2.92;;;;;;;4.93;100.00;99425.85;2127650;83;21074;-59
2022/12/27 11:28:02;;;;;;;14.37;2.80;;;;;;;4.97;100.00;99419.67;2128002;84;21015;-58
2022/12/27 11:31:03;;;;;;;19.05;3.12;;;;;;;5.01;100.00;99401.80;2127665;84;21658;-58
2022/12/27 11:34:05;;;;;;;16.57;3.00;;;;;;;4.99;100.00;99412.24;2128053;84;21571;-59
2022/12/27 11:37:11;;;;;;;12.30;2.75;;;;;;;5.10;100.00;99405.87;2127735;84;21005;-58
2022/12/27 11:40:10;;;;;;;19.27;3.15;;;;;;;4.97;100.00;99427.05;2161849;82;21109;-59
2022/12/27 11:43:12;;;;;;;15.63;2.67;;;;;;;5.18;100.00;99432.52;2172382;81;21041;-59
2022/12/27 11:46:14;;;;;;;18.52;3.20;;;;;;;5.21;100.00;99410.31;2172307;82;21060;-58
2022/12/27 11:49:16;;;;;;;15.10;2.73;;;;;;;5.30;100.00;99427.39;2172302;82;21124;-59
2022/12/27 11:52:17;;;;;;;16.65;2.80;;;;;;;5.29;100.00;99427.85;2172144;81;21084;-59
2022/12/27 11:55:19;;;;;;;15.97;2.80;;;;;;;5.36;100.00;99408.56;2172333;81;21072;-59
2022/12/27 11:58:20;;;;;;;20.02;3.60;;;;;;;5.53;100.00;99408.48;2172182;81;21072;-58
2022/12/27 12:01:22;;;;;;;17.17;2.90;;;;;;;5.58;100.00;99419.61;2172290;81;20992;-58
2022/12/27 12:04:23;;;;;;;15.58;3.00;;;;;;;5.58;100.00;99425.28;2172336;82;21001;-58
2022/12/27 12:07:26;;;;;;;16.62;3.35;;;;;;;5.54;100.00;99421.44;2172346;81;21021;-59
2022/12/27 12:10:28;;;;;;;15.23;2.75;;;;;;;5.39;100.00;99412.83;2172195;81;21544;-58
2022/12/27 12:13:29;;;;;;;15.30;2.83;;;;;;;5.25;100.00;99413.23;2172267;81;20998;-58
2022/12/27 12:16:30;;;;;;;15.53;3.20;;;;;;;5.11;100.00;99422.73;2172113;81;21045;-58
2022/12/27 12:19:32;;;;;;;11.73;2.12;;;;;;;5.06;100.00;99415.95;2172411;81;21052;-59
2022/12/27 12:22:33;;;;;;;12.93;2.20;;;;;;;5.10;100.00;99416.27;2172136;81;21037;-59
2022/12/27 12:25:35;;;;;;;15.88;2.50;;;;;;;5.20;100.00;99434.18;2178899;81;21546;-59
2022/12/27 12:28:36;;;;;;;15.03;3.17;;;;;;;5.44;100.00;99431.73;2188711;81;20953;-59
2022/12/27 12:31:38;;;;;;;19.65;2.77;;;;;;;5.45;100.00;99432.14;2188732;81;21491;-58
2022/12/27 12:34:39;;;;;;;16.03;3.20;;;;;;;5.31;100.00;99444.25;2188890;81;21023;-58
2022/12/27 12:37:41;;;;;;;12.50;2.17;;;;;;;5.11;100.00;99439.63;2188717;81;21019;-58
2022/12/27 12:40:42;;;;;;;15.30;3.30;;;;;;;4.78;100.00;99470.88;2189089;81;21007;-59
2022/12/27 12:43:44;;;;;;;12.90;2.25;;;;;;;4.78;100.00;99470.88;2188674;81;20960;-58
2022/12/27 12:46:45;;;;;;;15.25;2.42;;;;;;;4.72;100.00;99442.92;2188726;81;21579;-58
2022/12/27 12:49:47;;;;;;;13.65;2.33;;;;;;;4.62;100.00;99452.70;2188698;81;21036;-59
2022/12/27 12:52:48;;;;;;;17.10;2.33;;;;;;;4.59;100.00;99457.98;2188673;81;21531;-58
2022/12/27 12:55:50;;;;;;;13.80;2.30;;;;;;;4.63;100.00;99466.11;2188933;81;20976;-58
2022/12/27 12:58:51;;;;;;;12.45;1.98;;;;;;;4.58;100.00;99471.86;2188684;81;20988;-59
2022/12/27 13:01:53;;;;;;;8.75;2.47;;;;;;;4.86;100.00;99460.29;2188576;81;20990;-59
2022/12/27 13:04:54;;;;;;;15.97;2.90;;;;;;;4.92;100.00;99465.77;2189022;81;20962;-59
2022/12/27 13:07:56;;;;;;;12.30;2.37;;;;;;;4.94;100.00;99456.16;2189019;81;21000;-59
2022/12/27 13:10:57;;;;;;;15.37;3.33;;;;;;;4.93;100.00;99460.52;2189020;81;21012;-58
2022/12/27 13:13:59;;;;;;;16.10;3.20;;;;;;;4.82;100.00;99464.70;2188869;81;21655;-59
2022/12/27 13:17:01;;;;;;;18.45;3.25;;;;;;;4.65;100.00;99462.55;2188677;81;21091;-59
2022/12/27 13:20:02;;;;;;;17.53;3.27;;;;;;;4.83;100.00;99468.17;2189193;81;20949;-59
2022/12/27 13:23:04;;;;;;;18.73;3.80;;;;;;;4.77;100.00;99462.69;2188966;81;21750;-59
2022/12/27 13:26:06;;;;;;;22.52;4.90;;;;;;;4.77;100.00;99470.48;2180511;81;21005;-59
2022/12/27 13:29:07;;;;;;;17.02;3.35;;;;;;;4.76;100.00;99476.58;2171916;81;21108;-59
2022/12/27 13:32:09;;;;;;;20.20;4.80;;;;;;;4.73;100.00;99468.86;2171875;81;21540;-59
2022/12/27 13:35:10;;;;;;;20.40;4.37;;;;;;;4.74;100.00;99464.08;2172266;82;21066;-58
2022/12/27 13:38:12;;;;;;;20.27;3.65;;;;;;;4.64;100.00;99476.89;2172206;81;21508;-58
2022/12/27 13:41:13;;;;;;;20.17;3.53;;;;;;;4.58;100.00;99465.37;2172349;81;21068;-58
2022/12/27 13:44:15;;;;;;;18.62;3.98;;;;;;;4.50;100.00;99477.27;2171995;81;21579;-58
2022/12/27 13:47:16;;;;;;;19.17;4.28;;;;;;;4.55;100.00;99481.88;2172173;81;21029;-59
2022/12/27 13:50:18;;;;;;;26.52;5.35;;;;;;;4.53;100.00;99486.73;2172073;82;21038;-58
2022/12/27 13:53:19;;;;;;;19.12;4.17;;;;;;;4.49;100.00;99490.69;2172169;81;21045;-59
2022/12/27 13:56:21;;;;;;;18.00;3.67;;;;;;;4.48;100.00;99498.52;2171867;81;21092;-59
2022/12/27 13:59:22;;;;;;;24.00;5.92;;;;;;;4.48;100.00;99497.22;2172187;81;21504;-59
2022/12/27 14:02:23;;;;;;;23.15;5.72;;;;;;;4.53;100.00;99498.42;2172051;81;21013;-59
2022/12/27 14:05:25;;;;;;;21.65;4.60;;;;;;;4.40;100.00;99499.18;2172268;81;21529;-59
2022/12/27 14:08:26;;;;;;;19.35;3.35;;;;;;;4.44;100.00;99498.19;2172263;82;20996;-59
2022/12/27 14:11:28;;;;;;;22.90;4.07;;;;;;;4.45;100.00;99490.80;2172302;81;21552;-59
2022/12/27 14:14:29;;;;;;;19.50;4.42;;;;;;;4.53;100.00;99488.88;2172070;81;21041;-59
2022/12/27 14:17:31;;;;;;;25.48;4.95;;;;;;;4.50;100.00;99490.26;2171962;81;21080;-58
2022/12/27 14:20:32;;;;;;;19.85;4.53;;;;;;;4.43;100.00;99484.36;2172158;81;21025;-58
2022/12/27 14:23:34;;;;;;;24.23;5.40;;;;;;;4.43;100.00;99479.62;2171729;81;21068;-59
2022/12/27 14:26:35;;;;;;;21.77;5.00;;;;;;;4.39;100.00;99494.41;2172113;81;21607;-59
2022/12/27 14:29:36;;;;;;;20.17;4.40;;;;;;;4.36;100.00;99498.84;2172055;81;21364;-59
2022/12/27 14:32:38;;;;;;;21.62;5.20;;;;;;;4.26;100.00;99500.35;2171894;81;21564;-59
2022/12/27 14:35:40;;;;;;;23.95;6.03;;;;;;;4.32;100.00;99489.83;2172274;81;21069;-59
2022/12/27 14:38:42;;;;;;;;;;;;;;;4.31;100.00;99492.44;2174845;82;21548;-59
2022/12/27 14:41:43;;;;;;;23.15;5.40;;;;;;;4.33;100.00;99498.01;2172030;81;20133;-58
2022/12/27 14:44:45;;;;;;;18.32;4.85;;;;;;;4.37;100.00;99484.52;2171892;82;21065;-59
2022/12/27 14:47:47;;;;;;;27.50;5.03;;;;;;;4.38;100.00;99490.09;2172018;81;21099;-58
2022/12/27 14:50:48;;;;;;;22.20;5.67;;;;;;;4.41;100.00;99496.97;2172026;81;21171;-59
2022/12/27 14:53:50;;;;;;;26.05;7.47;;;;;;;4.42;100.00;99507.77;2171663;81;21012;-58
2022/12/27 14:56:51;;;;;;;29.70;7.20;;;;;;;4.41;100.00;99507.36;2172020;81;21544;-59
2022/12/27 14:59:52;;;;;;;26.30;7.28;;;;;;;4.34;100.00;99498.88;2172267;81;21049;-58
2022/12/27 15:02:54;;;;;;;29.52;7.33;;;;;;;4.34;100.00;99502.33;2171972;82;21017;-59
2022/12/27 15:05:56;;;;;;;25.75;6.53;;;;;;;4.32;100.00;99509.31;2172225;82;21069;-58
2022/12/27 15:08:57;;;;;;;23.98;6.70;;;;;;;4.35;100.00;99509.66;2171886;82;21035;-58
2022/12/27 15:11:59;;;;;;;21.95;5.37;;;;;;;4.29;100.00;99521.50;2172082;82;21088;-59
2022/12/27 15:15:00;;;;;;;29.32;7.22;;;;;;;4.30;100.00;99524.52;2172001;81;21049;-58
2022/12/27 15:18:01;;;;;;;25.52;6.60;;;;;;;4.31;100.00;99518.41;2172196;81;21096;-59
2022/12/27 15:21:03;;;;;;;26.63;7.73;;;;;;;4.37;100.00;99509.62;2171926;81;20973;-59
2022/12/27 15:24:05;;;;;;;27.50;6.57;;;;;;;4.33;100.00;99521.84;2172381;81;21730;-58
2022/12/27 15:27:07;;;;;;;27.35;7.30;;;;;;;4.40;100.00;99522.56;2182900;81;21132;-59
2022/12/27 15:30:09;;;;;;;24.63;6.37;;;;;;;4.41;100.00;99526.84;2188876;81;21135;-59
2022/12/27 15:33:10;;;;;;;26.57;6.25;;;;;;;4.41;100.00;99529.02;2188543;81;21036;-58
2022/12/27 15:36:12;;;;;;;24.90;6.10;;;;;;;4.44;100.00;99517.23;2188583;81;21531;-58
2022/12/27 15:39:13;;;;;;;25.95;5.60;;;;;;;4.37;100.00;99513.52;2188574;81;21005;-58
2022/12/27 15:42:14;;;;;;;22.98;5.65;;;;;;;4.31;100.00;99545.26;2188554;81;21507;-58
2022/12/27 15:45:16;;;;;;;28.87;7.53;;;;;;;4.25;100.00;99528.95;2188431;81;21132;-58